Orange8 — JL6278 — position and weather

sailwx.info

Track history (hours):
 
Tides and Currents Weather Stations Pressure Air Temp Water Temp Dewpoint Dewpoint Depression Visibility Wind Speed Wind Dir Waves Ship Positions

Orange8

Last reported at 2014-Dec-18 14:32 UTC. Time now 2014-Dec-18 22:27 UTC.
Position N 34°37' E 134°59'.

Length 164 m; draft 5 m.

Type: Passenger vessel. MMSI: 431501603.

Date/timePositionNaut miles runAvg speedWind from/ knotsBaromVisibWave heightAir tempDewpointWater temp
2014-Dec-18 14:32N 34°37' E 134°59'1717.0
2014-Dec-18 13:33N 34°37' E 135°19'6 5.7
2014-Dec-18 12:33N 34°37' E 135°26'0 0.0
2014-Dec-18 11:21N 34°37' E 135°26'0 0.0
2014-Dec-18 10:33N 34°37' E 135°26'0 0.0
2014-Dec-18 09:33N 34°37' E 135°26'0 0.0
2014-Dec-18 08:27N 34°37' E 135°26'0 0.0
2014-Dec-18 07:27N 34°37' E 135°26'0 0.0
2014-Dec-18 06:33N 34°37' E 135°26'0 0.0
2014-Dec-18 05:33N 34°37' E 135°26'0 0.0
2014-Dec-18 04:33N 34°37' E 135°26'0 0.0
2014-Dec-18 03:33N 34°37' E 135°26'0 0.0
2014-Dec-18 02:33N 34°37' E 135°26'0 0.0
2014-Dec-18 01:27N 34°37' E 135°26'0 0.0
2014-Dec-18 00:27N 34°37' E 135°26'0 0.0
2014-Dec-17 23:33N 34°37' E 135°26'0 0.0
2014-Dec-17 22:33N 34°37' E 135°26'0 0.0
2014-Dec-17 21:27N 34°37' E 135°26'6 7.0
2014-Dec-17 20:34N 34°36' E 135°18'1717.4
2014-Dec-17 19:34N 34°36' E 134°57'8 0.3
2014-Dec-16 15:10N 34°33' E 134°48'1117.8
2014-Dec-16 14:33N 34°38' E 134°60'1717.0
2014-Dec-16 13:33N 34°37' E 135°20'5 4.6
2014-Dec-16 12:32N 34°37' E 135°26'0 0.0
2014-Dec-16 11:32N 34°37' E 135°26'0 0.0
2014-Dec-16 10:32N 34°37' E 135°26'0 0.0
2014-Dec-16 09:26N 34°37' E 135°26'0 0.0
2014-Dec-16 08:26N 34°37' E 135°26'0 0.0
2014-Dec-16 07:32N 34°37' E 135°26'0 0.0
2014-Dec-16 06:14N 34°37' E 135°26'0 0.0
2014-Dec-15 23:08N 34°37' E 135°26'0 0.0
2014-Dec-15 22:14N 34°37' E 135°26'0 0.0
2014-Dec-15 21:20N 34°37' E 135°26'8 9.7
2014-Dec-15 20:33N 34°36' E 135°17'1717.4
2014-Dec-15 19:33N 34°36' E 134°56'2 0.1
2014-Dec-14 14:31N 34°37' E 134°58'1717.8
2014-Dec-14 13:33N 34°36' E 135°18'6 5.5
2014-Dec-14 12:27N 34°37' E 135°26'0 0.0
2014-Dec-14 11:27N 34°37' E 135°26'0 0.0
2014-Dec-14 10:33N 34°37' E 135°26'0 0.0
2014-Dec-14 09:27N 34°37' E 135°26'0 0.0
2014-Dec-14 08:33N 34°37' E 135°26'0 0.0
2014-Dec-14 07:33N 34°37' E 135°26'0 0.0
2014-Dec-14 06:33N 34°37' E 135°26'0 0.0
2014-Dec-14 05:33N 34°37' E 135°26'0 0.0
2014-Dec-14 04:33N 34°37' E 135°26'0 0.0
2014-Dec-14 03:27N 34°37' E 135°26'0 0.0
2014-Dec-14 02:33N 34°37' E 135°26'0 0.0
2014-Dec-14 01:15N 34°37' E 135°26'0 0.0
2014-Dec-14 00:33N 34°37' E 135°26'0 0.0
2014-Dec-13 23:33N 34°37' E 135°26'0 0.0
2014-Dec-13 22:27N 34°37' E 135°26'0 0.0
2014-Dec-13 21:33N 34°37' E 135°26'6 6.1
2014-Dec-13 20:33N 34°36' E 135°19'1818.4
2014-Dec-13 19:33N 34°36' E 134°56'8 0.3
2014-Dec-12 15:05N 34°33' E 134°47'1119.4
2014-Dec-12 14:33N 34°38' E 134°59'1817.9
2014-Dec-12 13:33N 34°37' E 135°20'5 2.3
2014-Dec-12 11:31N 34°37' E 135°26'0 0.0
2014-Dec-12 09:31N 34°37' E 135°26'0 0.0
2014-Dec-12 08:31N 34°37' E 135°26'0 0.0
2014-Dec-12 07:31N 34°37' E 135°26'0 0.0
2014-Dec-12 06:07N 34°37' E 135°26'0 0.0
2014-Dec-12 05:31N 34°37' E 135°26'0 0.0
2014-Dec-12 04:25N 34°37' E 135°26'0 0.0
2014-Dec-12 03:19N 34°37' E 135°26'0 0.0
2014-Dec-12 02:31N 34°37' E 135°26'0 0.0
2014-Dec-12 01:31N 34°37' E 135°26'0 0.0
2014-Dec-11 23:25N 34°37' E 135°26'0 0.0
2014-Dec-11 22:25N 34°37' E 135°26'0 0.0
2014-Dec-11 21:14N 34°37' E 135°26'6 9.5
2014-Dec-11 20:33N 34°36' E 135°18'1817.9
2014-Dec-11 19:33N 34°36' E 134°57'1 0.0
2014-Dec-10 14:33N 34°37' E 134°56'1818.6
2014-Dec-10 13:33N 34°37' E 135°19'6 2.9
2014-Dec-10 11:28N 34°37' E 135°26'0 0.0
2014-Dec-10 10:16N 34°37' E 135°26'0 0.0
2014-Dec-10 09:28N 34°37' E 135°26'0 0.0
2014-Dec-10 08:28N 34°37' E 135°26'0 0.0
2014-Dec-10 07:22N 34°37' E 135°26'0 0.0
2014-Dec-10 06:28N 34°37' E 135°26'0 0.0
2014-Dec-10 05:28N 34°37' E 135°26'0 0.0
2014-Dec-10 04:28N 34°37' E 135°26'0 0.0
2014-Dec-10 03:28N 34°37' E 135°26'0 0.0
2014-Dec-10 02:28N 34°37' E 135°26'0 0.0
2014-Dec-10 01:28N 34°37' E 135°26'0 0.0
2014-Dec-10 00:28N 34°37' E 135°26'0 0.0
2014-Dec-09 23:22N 34°37' E 135°26'0 0.0
2014-Dec-09 22:28N 34°37' E 135°26'0 0.0
2014-Dec-09 21:16N 34°37' E 135°26'5 7.6
2014-Dec-09 20:33N 34°36' E 135°19'1818.4
2014-Dec-09 19:33N 34°36' E 134°57'1 0.0
2014-Dec-08 14:33N 34°37' E 134°56'  
Track history (hours):
 
Tides and Currents Weather Stations Pressure Air Temp Water Temp Dewpoint Dewpoint Depression Visibility Wind Speed Wind Dir Waves Ship Positions

Orange8

Last reported at 2014-Dec-18 14:32 UTC. Time now 2014-Dec-18 22:27 UTC.
Position N 34°37' E 134°59'.

Length 164 m; draft 5 m.

Type: Passenger vessel. MMSI: 431501603.

Date/timePositionNaut miles runAvg speedWind from/ knotsBaromVisibWave heightAir tempDewpointWater temp
2014-Dec-18 14:32N 34°37' E 134°59'1717.0
2014-Dec-18 13:33N 34°37' E 135°19'6 5.7
2014-Dec-18 12:33N 34°37' E 135°26'0 0.0
2014-Dec-18 11:21N 34°37' E 135°26'0 0.0
2014-Dec-18 10:33N 34°37' E 135°26'0 0.0
2014-Dec-18 09:33N 34°37' E 135°26'0 0.0
2014-Dec-18 08:27N 34°37' E 135°26'0 0.0
2014-Dec-18 07:27N 34°37' E 135°26'0 0.0
2014-Dec-18 06:33N 34°37' E 135°26'0 0.0
2014-Dec-18 05:33N 34°37' E 135°26'0 0.0
2014-Dec-18 04:33N 34°37' E 135°26'0 0.0
2014-Dec-18 03:33N 34°37' E 135°26'0 0.0
2014-Dec-18 02:33N 34°37' E 135°26'0 0.0
2014-Dec-18 01:27N 34°37' E 135°26'0 0.0
2014-Dec-18 00:27N 34°37' E 135°26'0 0.0
2014-Dec-17 23:33N 34°37' E 135°26'0 0.0
2014-Dec-17 22:33N 34°37' E 135°26'0 0.0
2014-Dec-17 21:27N 34°37' E 135°26'6 7.0
2014-Dec-17 20:34N 34°36' E 135°18'1717.4
2014-Dec-17 19:34N 34°36' E 134°57'8 0.3
2014-Dec-16 15:10N 34°33' E 134°48'1117.8
2014-Dec-16 14:33N 34°38' E 134°60'1717.0
2014-Dec-16 13:33N 34°37' E 135°20'5 4.6
2014-Dec-16 12:32N 34°37' E 135°26'0 0.0
2014-Dec-16 11:32N 34°37' E 135°26'0 0.0
2014-Dec-16 10:32N 34°37' E 135°26'0 0.0
2014-Dec-16 09:26N 34°37' E 135°26'0 0.0
2014-Dec-16 08:26N 34°37' E 135°26'0 0.0
2014-Dec-16 07:32N 34°37' E 135°26'0 0.0
2014-Dec-16 06:14N 34°37' E 135°26'0 0.0
2014-Dec-15 23:08N 34°37' E 135°26'0 0.0
2014-Dec-15 22:14N 34°37' E 135°26'0 0.0
2014-Dec-15 21:20N 34°37' E 135°26'8 9.7
2014-Dec-15 20:33N 34°36' E 135°17'1717.4
2014-Dec-15 19:33N 34°36' E 134°56'2 0.1
2014-Dec-14 14:31N 34°37' E 134°58'1717.8
2014-Dec-14 13:33N 34°36' E 135°18'6 5.5
2014-Dec-14 12:27N 34°37' E 135°26'0 0.0
2014-Dec-14 11:27N 34°37' E 135°26'0 0.0
2014-Dec-14 10:33N 34°37' E 135°26'0 0.0
2014-Dec-14 09:27N 34°37' E 135°26'0 0.0
2014-Dec-14 08:33N 34°37' E 135°26'0 0.0
2014-Dec-14 07:33N 34°37' E 135°26'0 0.0
2014-Dec-14 06:33N 34°37' E 135°26'0 0.0
2014-Dec-14 05:33N 34°37' E 135°26'0 0.0
2014-Dec-14 04:33N 34°37' E 135°26'0 0.0
2014-Dec-14 03:27N 34°37' E 135°26'0 0.0
2014-Dec-14 02:33N 34°37' E 135°26'0 0.0
2014-Dec-14 01:15N 34°37' E 135°26'0 0.0
2014-Dec-14 00:33N 34°37' E 135°26'0 0.0
2014-Dec-13 23:33N 34°37' E 135°26'0 0.0
2014-Dec-13 22:27N 34°37' E 135°26'0 0.0
2014-Dec-13 21:33N 34°37' E 135°26'6 6.1
2014-Dec-13 20:33N 34°36' E 135°19'1818.4
2014-Dec-13 19:33N 34°36' E 134°56'8 0.3
2014-Dec-12 15:05N 34°33' E 134°47'1119.4
2014-Dec-12 14:33N 34°38' E 134°59'1817.9
2014-Dec-12 13:33N 34°37' E 135°20'5 2.3
2014-Dec-12 11:31N 34°37' E 135°26'0 0.0
2014-Dec-12 09:31N 34°37' E 135°26'0 0.0
2014-Dec-12 08:31N 34°37' E 135°26'0 0.0
2014-Dec-12 07:31N 34°37' E 135°26'0 0.0
2014-Dec-12 06:07N 34°37' E 135°26'0 0.0
2014-Dec-12 05:31N 34°37' E 135°26'0 0.0
2014-Dec-12 04:25N 34°37' E 135°26'0 0.0
2014-Dec-12 03:19N 34°37' E 135°26'0 0.0
2014-Dec-12 02:31N 34°37' E 135°26'0 0.0
2014-Dec-12 01:31N 34°37' E 135°26'0 0.0
2014-Dec-11 23:25N 34°37' E 135°26'0 0.0
2014-Dec-11 22:25N 34°37' E 135°26'0 0.0
2014-Dec-11 21:14N 34°37' E 135°26'6 9.5
2014-Dec-11 20:33N 34°36' E 135°18'1817.9
2014-Dec-11 19:33N 34°36' E 134°57'1 0.0
2014-Dec-10 14:33N 34°37' E 134°56'1818.6
2014-Dec-10 13:33N 34°37' E 135°19'6 2.9
2014-Dec-10 11:28N 34°37' E 135°26'0 0.0
2014-Dec-10 10:16N 34°37' E 135°26'0 0.0
2014-Dec-10 09:28N 34°37' E 135°26'0 0.0
2014-Dec-10 08:28N 34°37' E 135°26'0 0.0
2014-Dec-10 07:22N 34°37' E 135°26'0 0.0
2014-Dec-10 06:28N 34°37' E 135°26'0 0.0
2014-Dec-10 05:28N 34°37' E 135°26'0 0.0
2014-Dec-10 04:28N 34°37' E 135°26'0 0.0
2014-Dec-10 03:28N 34°37' E 135°26'0 0.0
2014-Dec-10 02:28N 34°37' E 135°26'0 0.0
2014-Dec-10 01:28N 34°37' E 135°26'0 0.0
2014-Dec-10 00:28N 34°37' E 135°26'0 0.0
2014-Dec-09 23:22N 34°37' E 135°26'0 0.0
2014-Dec-09 22:28N 34°37' E 135°26'0 0.0
2014-Dec-09 21:16N 34°37' E 135°26'5 7.6
2014-Dec-09 20:33N 34°36' E 135°19'1818.4
2014-Dec-09 19:33N 34°36' E 134°57'1 0.0
2014-Dec-08 14:33N 34°37' E 134°56'  

Dump ship's entire track history